Portada
METAR-TAF:

METAR-TAF

Aeroports :

Tenerife Sud, Espanya

latitud: 28-03N, longitud: 016-34W, altitud: 64 m

Observació

L'informe es va fer fa 18 minuts, a les 22:30 UTC
Vent 13 kt del Est/Nord-Est
Temperatura 20°C
Humitat 60%
Pressió 1018 hPa
Visibilitat 10 km o més
Escasses núvols a una alçada de 2500 ft

METAR: GCTS 132230Z 06013KT 9999 FEW025 20/12 Q1018 NOSIG

Hora: 22:48 (22:48 UTC)

Pronòstic

L'informe es va fer fa 58 minuts, a les 21:50 UTC
Pronòstic vàlid del 13 a les 21 UTC al 14 a les 21 UTC
Vent 12 kt del Nord-Est
Visibilitat 10 km o més
Escasses núvols a una alçada de 3000 ft
Probabilitat 40% :
Temporalment
l' 14 a les 04 UTC al 14 a les 09 UTC
Vent 9 kt del Nord

TAF: GCTS 132150Z 1321/1421 05012KT 9999 FEW030 TX25/1414Z TN19/1406Z PROB40 TEMPO 1404/1409 35009KT

Observacions i pronòstics meteorològics de més de 4000 aeroports (METAR i TAF).

Les estacions disponibles són els punts grocs i vermells al mapa.

Posi el ratolí al punt desitjat per veure el nom de l'estació.

Feu clic per veure les observacions i els pronòstics meteorològics.

Per canviar el mapa: feu clic els botons verds amb una creu de color negre per apropar; al botó verd amb un guió per allunyar la imatge; o en les fletxes verdes per a mapes adjacents.


METAR-TAF: